Time;durP1;ratioP1;P1;durP2;ratioP2;P2;SDS_P1;SDS_P2;PMS_P1;PMS_P2;Temp;Humidity;BMP_temperature;BMP_pressure;BME280_temperature;BME280_humidity;BME280_pressure;Samples;Min_cycle;Max_cycle;Signal;HPM_P1;HPM_P2
2022/12/01 00:00:35;;;;;;;124.72;55.20;;;3.60;99.90;;;;;;5010900;28;20034;-46
2022/12/01 00:03:01;;;;;;;122.07;53.92;;;3.70;99.90;;;;;;5008178;28;20030;-45
2022/12/01 00:05:26;;;;;;;126.13;54.92;;;3.60;99.90;;;;;;4991463;28;20432;-44
2022/12/01 00:07:52;;;;;;;139.80;57.33;;;3.70;99.90;;;;;;4991291;28;20263;-44
2022/12/01 00:10:27;;;;;;;132.68;56.80;;;3.60;99.90;;;;;;4991424;28;20034;-48
2022/12/01 00:12:54;;;;;;;139.32;58.42;;;3.70;99.90;;;;;;4991786;28;20394;-41
2022/12/01 00:15:20;;;;;;;137.85;57.60;;;3.60;99.90;;;;;;4991259;28;20391;-42
2022/12/01 00:17:47;;;;;;;129.88;56.28;;;3.60;99.90;;;;;;4991049;28;20053;-40
2022/12/01 00:20:14;;;;;;;137.68;57.95;;;3.60;99.90;;;;;;5003173;28;20037;-42
2022/12/01 00:22:44;;;;;;;142.40;60.90;;;3.60;99.90;;;;;;5010638;28;20026;-46
2022/12/01 00:25:10;;;;;;;134.10;56.33;;;3.60;99.90;;;;;;5010480;28;20048;-41
2022/12/01 00:27:35;;;;;;;143.35;59.55;;;3.60;99.90;;;;;;5010509;28;20562;-41
2022/12/01 00:30:01;;;;;;;140.80;57.03;;;3.60;99.90;;;;;;5009996;28;20036;-41
2022/12/01 00:32:29;;;;;;;146.98;59.63;;;3.60;99.90;;;;;;5009127;28;20030;-41
2022/12/01 00:34:54;;;;;;;132.82;58.08;;;3.60;99.90;;;;;;5010407;28;20033;-42
2022/12/01 00:37:20;;;;;;;139.77;57.08;;;3.50;99.90;;;;;;5010400;28;20029;-41
2022/12/01 00:39:45;;;;;;;150.70;56.20;;;3.50;99.90;;;;;;5010044;28;20098;-41
2022/12/01 00:42:10;;;;;;;148.82;58.20;;;3.50;99.90;;;;;;5010244;28;20103;-43
2022/12/01 00:44:36;;;;;;;148.95;55.85;;;3.50;99.90;;;;;;5010132;28;20100;-41
2022/12/01 00:47:01;;;;;;;147.50;57.65;;;3.50;99.90;;;;;;5004426;28;20042;-43
2022/12/01 00:49:27;;;;;;;135.23;55.20;;;3.50;99.90;;;;;;4990195;28;20446;-41
2022/12/01 00:51:52;;;;;;;138.27;56.25;;;3.50;99.90;;;;;;4990591;28;20058;-42
2022/12/01 00:54:18;;;;;;;144.73;55.92;;;3.40;99.90;;;;;;4992235;28;20064;-42
2022/12/01 00:56:43;;;;;;;136.13;55.55;;;3.30;99.90;;;;;;5010572;28;20380;-41
2022/12/01 00:59:09;;;;;;;140.02;57.70;;;3.30;99.90;;;;;;5010221;28;20072;-43
2022/12/01 01:01:34;;;;;;;138.70;57.38;;;3.30;99.90;;;;;;5010206;28;20064;-44
2022/12/01 01:04:00;;;;;;;130.43;52.60;;;3.30;99.90;;;;;;5010019;28;20054;-42
2022/12/01 01:06:25;;;;;;;129.15;52.65;;;3.20;99.90;;;;;;5009624;28;20022;-42
2022/12/01 01:08:51;;;;;;;129.32;52.78;;;3.20;99.90;;;;;;5008683;28;20025;-42
2022/12/01 01:11:16;;;;;;;138.80;52.70;;;3.30;99.90;;;;;;5008520;28;20090;-43
2022/12/01 01:13:42;;;;;;;158.82;58.03;;;3.20;99.90;;;;;;5009886;28;20087;-46
2022/12/01 01:16:17;;;;;;;143.88;54.35;;;3.10;99.90;;;;;;5010041;28;20487;-43
2022/12/01 01:18:42;;;;;;;159.30;58.38;;;3.10;99.90;;;;;;5009712;28;20065;-42
2022/12/01 01:21:13;;;;;;;146.30;56.88;;;3.10;99.90;;;;;;5009044;28;20116;-43
2022/12/01 01:23:39;;;;;;;145.95;55.85;;;3.20;99.90;;;;;;5009464;28;20454;-42
2022/12/01 01:26:25;;;;;;;146.60;57.03;;;3.10;99.90;;;;;;5008035;28;20035;-41
2022/12/01 01:28:54;;;;;;;149.05;57.63;;;3.10;99.90;;;;;;5008388;28;20293;-42
2022/12/01 01:31:21;;;;;;;157.30;59.83;;;3.10;99.90;;;;;;5009083;28;20022;-42
2022/12/01 01:33:47;;;;;;;140.60;55.42;;;3.10;99.90;;;;;;5009468;28;20036;-45
2022/12/01 01:36:14;;;;;;;153.40;57.10;;;3.10;99.90;;;;;;5009664;28;20305;-42
2022/12/01 01:38:39;;;;;;;155.38;57.47;;;3.10;99.90;;;;;;5009542;28;20534;-41
2022/12/01 01:41:06;;;;;;;155.60;58.75;;;3.10;99.90;;;;;;5007668;28;20029;-42
2022/12/01 01:43:47;;;;;;;150.95;57.42;;;3.10;99.90;;;;;;5009127;28;20092;-43
2022/12/01 01:46:19;;;;;;;165.88;56.35;;;3.10;99.90;;;;;;5009220;28;20120;-43
2022/12/01 01:48:55;;;;;;;152.68;57.88;;;3.10;99.90;;;;;;5009312;28;20038;-42
2022/12/01 01:51:34;;;;;;;156.60;58.15;;;3.10;99.90;;;;;;5007674;28;20029;-42
2022/12/01 01:54:03;;;;;;;151.38;59.05;;;3.00;99.90;;;;;;5009388;28;20029;-43
2022/12/01 01:56:29;;;;;;;157.55;60.28;;;3.00;99.90;;;;;;5009290;28;20026;-41
2022/12/01 01:58:55;;;;;;;155.48;56.88;;;3.00;99.90;;;;;;5009167;28;20365;-44
2022/12/01 02:01:20;;;;;;;152.10;57.10;;;3.00;99.90;;;;;;5007495;28;20032;-46
2022/12/01 02:03:47;;;;;;;149.80;57.30;;;3.00;99.90;;;;;;5009784;28;20113;-43
2022/12/01 02:06:13;;;;;;;146.52;53.17;;;3.00;99.90;;;;;;5009470;28;20022;-43
2022/12/01 02:08:38;;;;;;;144.23;52.65;;;3.00;99.90;;;;;;5009289;28;20045;-44
2022/12/01 02:11:47;;;;;;;145.57;53.53;;;3.00;99.90;;;;;;5008511;28;20034;-43
2022/12/01 02:14:25;;;;;;;144.05;55.05;;;3.00;99.90;;;;;;5009681;28;20206;-44
2022/12/01 02:17:22;;;;;;;147.15;53.72;;;3.00;99.90;;;;;;5010047;28;20045;-42
2022/12/01 02:20:34;;;;;;;137.55;51.17;;;3.00;99.90;;;;;;5012672;28;20045;-42
2022/12/01 02:23:42;;;;;;;137.75;49.47;;;3.00;99.90;;;;;;5011756;28;20109;-43
2022/12/01 02:26:07;;;;;;;140.40;48.65;;;3.00;99.90;;;;;;5013337;28;20113;-42
2022/12/01 02:28:55;;;;;;;135.68;49.53;;;2.90;99.90;;;;;;5012928;28;20117;-45
2022/12/01 02:31:34;;;;;;;133.27;48.50;;;3.00;99.90;;;;;;5012553;28;20026;-42
2022/12/01 02:34:31;;;;;;;127.88;48.13;;;2.90;99.90;;;;;;5012587;28;20096;-42
2022/12/01 02:37:08;;;;;;;127.20;45.53;;;2.80;99.90;;;;;;5012714;28;20036;-41
2022/12/01 02:39:50;;;;;;;130.70;47.50;;;2.80;99.90;;;;;;5012302;28;20101;-42
2022/12/01 02:45:17;;;;;;;123.60;45.00;;;2.80;99.90;;;;;;5012858;28;20037;-42
2022/12/01 02:47:44;;;;;;;117.72;45.22;;;2.80;99.90;;;;;;5012608;28;20030;-42
2022/12/01 02:50:11;;;;;;;122.05;45.22;;;2.80;99.90;;;;;;5012274;28;20054;-41
2022/12/01 02:52:38;;;;;;;117.93;44.13;;;2.70;99.90;;;;;;5011330;28;20025;-42
2022/12/01 02:55:04;;;;;;;111.40;44.83;;;2.70;99.90;;;;;;5012582;28;20112;-46
2022/12/01 02:57:30;;;;;;;106.78;39.72;;;2.70;99.90;;;;;;5012251;28;20109;-43
2022/12/01 02:59:56;;;;;;;107.00;43.35;;;2.70;99.90;;;;;;5011462;28;20487;-43
2022/12/01 03:02:51;;;;;;;114.53;44.28;;;2.70;99.90;;;;;;5012047;28;20014;-43
2022/12/01 03:05:27;;;;;;;109.30;43.40;;;2.70;99.90;;;;;;5009581;28;20014;-43
2022/12/01 03:08:20;;;;;;;115.50;45.75;;;2.70;99.90;;;;;;5009139;28;20034;-42
2022/12/01 03:10:55;;;;;;;121.28;45.03;;;2.80;99.90;;;;;;5010771;28;20034;-43
2022/12/01 03:13:54;;;;;;;138.05;48.28;;;2.70;99.90;;;;;;5017270;28;20029;-42
2022/12/01 03:16:35;;;;;;;135.35;48.53;;;2.70;99.90;;;;;;5010110;28;20454;-42
2022/12/01 03:19:34;;;;;;;120.90;41.88;;;2.70;99.90;;;;;;5011636;28;20037;-42
2022/12/01 03:22:07;;;;;;;122.65;45.85;;;2.70;99.90;;;;;;5009009;28;20045;-42
2022/12/01 03:24:35;;;;;;;131.18;44.97;;;2.70;99.90;;;;;;5011350;28;20018;-43
2022/12/01 03:27:02;;;;;;;117.57;42.55;;;2.70;99.90;;;;;;5011295;28;20462;-43
2022/12/01 03:29:40;;;;;;;125.03;46.50;;;2.70;99.90;;;;;;5010698;28;20049;-43
2022/12/01 03:32:17;;;;;;;111.15;43.28;;;2.70;99.90;;;;;;5008259;28;20442;-43
2022/12/01 03:34:50;;;;;;;116.93;43.00;;;2.70;99.90;;;;;;5009770;28;20030;-42
2022/12/01 03:37:26;;;;;;;110.40;41.97;;;2.70;99.90;;;;;;5011332;28;20024;-43
2022/12/01 03:39:56;;;;;;;112.07;40.75;;;2.70;99.90;;;;;;5009070;28;20049;-46
2022/12/01 03:42:26;;;;;;;111.32;42.25;;;2.70;99.90;;;;;;5011066;28;20014;-43
2022/12/01 03:44:55;;;;;;;113.03;41.70;;;2.70;99.90;;;;;;5011299;28;20049;-42
2022/12/01 03:47:30;;;;;;;133.85;44.97;;;2.60;99.90;;;;;;5010975;28;20025;-42
2022/12/01 03:49:59;;;;;;;140.35;46.15;;;2.60;99.90;;;;;;5010053;28;20066;-45
2022/12/01 03:52:30;;;;;;;127.10;44.28;;;2.60;99.90;;;;;;5011007;28;20104;-45
2022/12/01 03:55:10;;;;;;;127.05;45.22;;;2.60;99.90;;;;;;5010879;28;20069;-44
2022/12/01 03:57:50;;;;;;;130.52;42.75;;;2.60;99.90;;;;;;5010398;28;20026;-43
2022/12/01 04:00:17;;;;;;;140.07;46.55;;;2.60;99.90;;;;;;5010420;28;20033;-44
2022/12/01 04:02:43;;;;;;;127.28;41.47;;;2.60;99.90;;;;;;5010537;28;20054;-46
2022/12/01 04:05:10;;;;;;;133.60;45.95;;;2.50;99.90;;;;;;5010992;28;20049;-46
2022/12/01 04:07:36;;;;;;;128.05;42.00;;;2.50;99.90;;;;;;5010783;28;20546;-46
2022/12/01 04:10:03;;;;;;;118.22;42.83;;;2.50;99.90;;;;;;5007829;28;20022;-44
2022/12/01 04:12:28;;;;;;;117.78;39.38;;;2.40;99.90;;;;;;5010591;28;20084;-46
2022/12/01 04:14:58;;;;;;;119.97;41.55;;;2.40;99.90;;;;;;5010888;28;20033;-45
2022/12/01 04:17:25;;;;;;;110.32;41.50;;;2.40;99.90;;;;;;5009644;28;20069;-41
2022/12/01 04:19:51;;;;;;;115.20;41.90;;;2.30;99.90;;;;;;5010595;28;20096;-41
2022/12/01 04:22:16;;;;;;;108.35;39.10;;;2.40;99.90;;;;;;5009642;28;20025;-44
2022/12/01 04:24:42;;;;;;;124.43;42.92;;;2.30;99.90;;;;;;5010978;28;20032;-44
2022/12/01 04:27:07;;;;;;;109.72;37.53;;;2.30;99.90;;;;;;5011072;28;20022;-43
2022/12/01 04:29:33;;;;;;;101.97;37.13;;;2.40;99.90;;;;;;5010186;28;20053;-42
2022/12/01 04:31:58;;;;;;;114.22;42.20;;;2.40;99.90;;;;;;5010598;28;20022;-43
2022/12/01 04:34:24;;;;;;;123.38;42.95;;;2.40;99.90;;;;;;5010679;28;20446;-41
2022/12/01 04:36:49;;;;;;;121.82;42.15;;;2.30;99.90;;;;;;5010771;28;20068;-41
2022/12/01 04:39:15;;;;;;;112.88;41.38;;;2.40;99.90;;;;;;5010111;28;20030;-43
2022/12/01 04:41:40;;;;;;;122.32;42.10;;;2.40;99.90;;;;;;5010370;28;20018;-41
2022/12/01 04:44:08;;;;;;;126.90;43.40;;;2.40;99.90;;;;;;5010352;28;20040;-41
2022/12/01 04:46:33;;;;;;;123.43;43.58;;;2.40;99.90;;;;;;5010158;28;20448;-43
2022/12/01 04:48:58;;;;;;;120.97;42.55;;;2.40;99.90;;;;;;5010301;28;20115;-41
2022/12/01 04:51:24;;;;;;;115.57;40.22;;;2.40;99.90;;;;;;5010018;28;20030;-42
2022/12/01 04:53:50;;;;;;;122.40;41.67;;;2.40;99.90;;;;;;5010345;28;20111;-42
2022/12/01 04:56:15;;;;;;;124.82;42.40;;;2.40;99.90;;;;;;5010232;28;20242;-43
2022/12/01 04:58:41;;;;;;;125.45;41.55;;;2.40;99.90;;;;;;5008888;28;20036;-42
2022/12/01 05:01:09;;;;;;;122.90;42.13;;;2.40;99.90;;;;;;5009323;28;20093;-43
2022/12/01 05:03:37;;;;;;;129.65;42.45;;;2.30;99.90;;;;;;5009975;28;20018;-46
2022/12/01 05:06:08;;;;;;;136.05;46.15;;;2.40;99.90;;;;;;5010258;28;20462;-43
2022/12/01 05:08:33;;;;;;;135.55;44.10;;;2.30;99.90;;;;;;5009995;28;20026;-43
2022/12/01 05:11:00;;;;;;;142.27;45.38;;;2.30;99.90;;;;;;5008450;28;20041;-41
2022/12/01 05:13:25;;;;;;;138.80;44.85;;;2.30;99.90;;;;;;5009995;28;20200;-44
2022/12/01 05:15:52;;;;;;;134.32;45.22;;;2.30;99.90;;;;;;5010060;28;20034;-42
2022/12/01 05:18:17;;;;;;;116.65;42.67;;;2.30;99.90;;;;;;5009996;28;20455;-43
2022/12/01 05:20:58;;;;;;;121.18;41.88;;;2.30;99.90;;;;;;5004181;28;20026;-41
2022/12/01 05:23:28;;;;;;;116.35;41.88;;;2.20;99.90;;;;;;4990191;28;20023;-42
2022/12/01 05:25:54;;;;;;;126.28;41.13;;;2.20;99.90;;;;;;5002787;28;20456;-41
2022/12/01 05:28:22;;;;;;;123.32;41.72;;;2.30;99.90;;;;;;5009351;28;20028;-40
2022/12/01 05:30:48;;;;;;;126.63;41.22;;;2.20;99.90;;;;;;5009099;28;20084;-40
2022/12/01 05:33:14;;;;;;;118.80;40.30;;;2.20;99.90;;;;;;5009640;28;20065;-42
2022/12/01 05:35:39;;;;;;;105.30;40.05;;;2.20;99.90;;;;;;5009732;28;20077;-40
2022/12/01 05:38:05;;;;;;;117.65;41.40;;;2.30;99.90;;;;;;5008238;28;20040;-40
2022/12/01 05:40:31;;;;;;;111.90;40.08;;;2.30;99.90;;;;;;5008727;28;20017;-42
2022/12/01 05:42:57;;;;;;;122.65;40.03;;;2.20;99.90;;;;;;5009360;28;20028;-41
2022/12/01 05:45:23;;;;;;;125.82;43.65;;;2.20;99.90;;;;;;5009376;28;20034;-41
2022/12/01 05:47:52;;;;;;;117.65;40.65;;;2.20;99.90;;;;;;5008801;28;20030;-41
2022/12/01 05:50:18;;;;;;;119.88;42.40;;;2.20;99.90;;;;;;4995717;28;20088;-40
2022/12/01 05:52:43;;;;;;;121.35;42.38;;;2.20;99.90;;;;;;5006251;28;20033;-42
2022/12/01 05:55:09;;;;;;;112.45;39.25;;;2.30;99.90;;;;;;5008541;28;21175;-41
2022/12/01 05:57:34;;;;;;;113.15;39.85;;;2.30;99.90;;;;;;5008803;28;20712;-42
2022/12/01 06:00:00;;;;;;;112.32;39.17;;;2.30;99.90;;;;;;5008921;28;20076;-41
2022/12/01 06:02:25;;;;;;;121.95;43.42;;;2.30;99.90;;;;;;5009335;28;20383;-42
2022/12/01 06:04:52;;;;;;;113.15;40.85;;;2.30;99.90;;;;;;5009010;28;20025;-41
2022/12/01 06:07:18;;;;;;;124.05;43.67;;;2.30;99.90;;;;;;5009358;28;20018;-42
2022/12/01 06:09:45;;;;;;;122.55;42.17;;;2.20;99.90;;;;;;5007969;28;20357;-41
2022/12/01 06:12:11;;;;;;;115.55;42.15;;;2.30;99.90;;;;;;5008630;28;20010;-41
2022/12/01 06:14:36;;;;;;;108.57;38.53;;;2.30;99.90;;;;;;5008354;28;20026;-41
2022/12/01 06:17:02;;;;;;;122.07;41.13;;;2.30;99.90;;;;;;5007182;28;20018;-42
2022/12/01 06:19:27;;;;;;;130.63;43.42;;;2.30;99.90;;;;;;5007981;28;20049;-41
2022/12/01 06:21:53;;;;;;;136.05;42.30;;;2.30;99.90;;;;;;5007390;28;20018;-41
2022/12/01 06:24:18;;;;;;;141.63;46.20;;;2.30;99.90;;;;;;5007444;28;20037;-42
2022/12/01 06:26:43;;;;;;;133.98;44.15;;;2.30;99.90;;;;;;5007593;28;20535;-42
2022/12/01 06:29:09;;;;;;;143.23;47.05;;;2.30;99.90;;;;;;5006756;28;20030;-41
2022/12/01 06:31:35;;;;;;;142.55;46.17;;;2.30;99.90;;;;;;5007136;28;20018;-44
2022/12/01 06:34:00;;;;;;;141.93;46.50;;;2.40;99.90;;;;;;5006452;28;20026;-41
2022/12/01 06:36:26;;;;;;;136.45;42.40;;;2.40;99.90;;;;;;5006674;28;20140;-43
2022/12/01 06:38:51;;;;;;;130.23;42.55;;;2.40;99.90;;;;;;5006050;28;20022;-43
2022/12/01 06:41:17;;;;;;;136.70;44.10;;;2.40;99.90;;;;;;5008203;28;20045;-42
2022/12/01 06:43:42;;;;;;;126.65;44.80;;;2.40;99.90;;;;;;5008734;28;20494;-40
2022/12/01 06:46:07;;;;;;;123.63;40.45;;;2.40;99.90;;;;;;5008664;28;20084;-42
2022/12/01 06:48:33;;;;;;;124.57;44.13;;;2.30;99.90;;;;;;5008867;28;20200;-41
2022/12/01 06:51:00;;;;;;;123.35;40.90;;;2.40;99.90;;;;;;5005826;28;20026;-40
2022/12/01 06:53:27;;;;;;;137.38;44.65;;;2.40;99.90;;;;;;5007886;28;20515;-41
2022/12/01 06:55:53;;;;;;;124.82;42.45;;;2.40;99.90;;;;;;5008398;28;20022;-42
2022/12/01 06:58:18;;;;;;;118.55;41.42;;;2.40;99.90;;;;;;5008806;28;20041;-41
2022/12/01 07:00:44;;;;;;;126.25;44.85;;;2.30;99.90;;;;;;5007903;28;20018;-42
2022/12/01 07:03:09;;;;;;;120.75;43.92;;;2.40;99.90;;;;;;5008260;28;20387;-46
2022/12/01 07:05:35;;;;;;;124.10;42.88;;;2.40;99.90;;;;;;5012257;28;20025;-43
2022/12/01 07:08:01;;;;;;;124.50;43.65;;;2.40;99.90;;;;;;5012064;28;20032;-42
2022/12/01 07:10:26;;;;;;;106.47;37.33;;;2.40;99.90;;;;;;5011274;28;20449;-43
2022/12/01 07:12:54;;;;;;;123.57;42.42;;;2.40;99.90;;;;;;5011891;28;20448;-44
2022/12/01 07:15:20;;;;;;;129.57;42.35;;;2.40;99.90;;;;;;5011720;28;20020;-40
2022/12/01 07:17:45;;;;;;;133.50;44.55;;;2.40;99.90;;;;;;5011512;28;20038;-40
2022/12/01 07:20:11;;;;;;;129.63;42.67;;;2.40;99.90;;;;;;5011221;28;20030;-41
2022/12/01 07:22:37;;;;;;;137.90;46.17;;;2.40;99.90;;;;;;5011461;28;20030;-41
2022/12/01 07:25:03;;;;;;;140.50;42.05;;;2.40;99.90;;;;;;5010356;28;20026;-41
2022/12/01 07:27:30;;;;;;;138.15;43.78;;;2.40;99.90;;;;;;5011560;28;20040;-45
2022/12/01 07:29:55;;;;;;;144.77;43.30;;;2.40;99.90;;;;;;5007561;28;20034;-44
2022/12/01 07:32:21;;;;;;;127.70;43.13;;;2.40;99.90;;;;;;4995603;28;20125;-45
2022/12/01 07:34:46;;;;;;;134.55;45.75;;;2.40;99.90;;;;;;4989848;28;20112;-43
2022/12/01 07:37:12;;;;;;;134.85;44.00;;;2.40;99.90;;;;;;4989375;28;20035;-44
2022/12/01 07:39:37;;;;;;;129.48;44.03;;;2.40;99.90;;;;;;4993935;28;20589;-41
2022/12/01 07:42:03;;;;;;;122.85;41.40;;;2.40;99.90;;;;;;5006961;28;20018;-40
2022/12/01 07:44:28;;;;;;;126.80;42.72;;;2.40;99.90;;;;;;5005778;28;20022;-40
2022/12/01 07:46:54;;;;;;;121.80;42.30;;;2.40;99.90;;;;;;4999548;28;20053;-41
2022/12/01 07:49:19;;;;;;;114.95;40.53;;;2.40;99.90;;;;;;4994341;28;20026;-40
2022/12/01 07:51:45;;;;;;;129.68;40.92;;;2.50;99.90;;;;;;5008004;28;20030;-40
2022/12/01 07:54:13;;;;;;;121.47;42.60;;;2.40;99.90;;;;;;5008719;28;20037;-40
2022/12/01 07:56:39;;;;;;;107.70;39.03;;;2.40;99.90;;;;;;5008919;28;20018;-41
2022/12/01 07:59:04;;;;;;;120.45;41.53;;;2.40;99.90;;;;;;5008284;28;20034;-41
2022/12/01 08:01:30;;;;;;;121.68;39.75;;;2.40;99.90;;;;;;4995437;28;20491;-42
2022/12/01 08:03:57;;;;;;;109.18;38.20;;;2.40;99.90;;;;;;4999972;28;20038;-41
2022/12/01 08:06:24;;;;;;;125.47;41.20;;;2.40;99.90;;;;;;5005403;28;20506;-40
2022/12/01 08:08:49;;;;;;;120.28;39.53;;;2.40;99.90;;;;;;5005543;28;20041;-41
2022/12/01 08:11:19;;;;;;;133.65;42.47;;;2.40;99.90;;;;;;5007055;28;20030;-41
2022/12/01 08:13:45;;;;;;;111.25;37.03;;;2.50;99.90;;;;;;5005913;28;20034;-42
2022/12/01 08:16:12;;;;;;;120.32;36.80;;;2.50;99.90;;;;;;5005723;28;20487;-40
2022/12/01 08:18:39;;;;;;;124.28;39.00;;;2.50;99.90;;;;;;5005166;28;20045;-40
2022/12/01 08:21:06;;;;;;;120.55;39.88;;;2.50;99.90;;;;;;5003233;28;20419;-40
2022/12/01 08:23:32;;;;;;;121.18;38.70;;;2.50;99.90;;;;;;5005411;28;20120;-40
2022/12/01 08:26:02;;;;;;;121.82;39.47;;;2.60;99.90;;;;;;5005585;28;20430;-40
2022/12/01 08:28:29;;;;;;;106.13;38.05;;;2.50;99.90;;;;;;5001401;28;20041;-41
2022/12/01 08:30:54;;;;;;;95.95;35.42;;;2.50;99.90;;;;;;5007747;28;20026;-40
2022/12/01 08:33:20;;;;;;;94.38;34.40;;;2.50;99.90;;;;;;4991715;28;20034;-41
2022/12/01 08:35:45;;;;;;;103.22;36.20;;;2.50;99.90;;;;;;4988713;28;20656;-40
2022/12/01 08:38:11;;;;;;;110.60;38.33;;;2.50;99.90;;;;;;5002018;28;20072;-42
2022/12/01 08:40:36;;;;;;;96.68;34.22;;;2.40;99.90;;;;;;5007106;28;20072;-40
2022/12/01 08:43:02;;;;;;;87.03;31.48;;;2.50;99.90;;;;;;5003105;28;20034;-40
2022/12/01 08:45:28;;;;;;;98.85;33.97;;;2.50;99.90;;;;;;4987754;28;20026;-41
2022/12/01 08:47:57;;;;;;;93.97;32.95;;;2.60;99.90;;;;;;4992480;28;20467;-41
2022/12/01 08:50:26;;;;;;;94.70;34.50;;;2.60;99.90;;;;;;4994491;28;20491;-41
2022/12/01 08:52:52;;;;;;;98.45;33.03;;;2.60;99.90;;;;;;5004566;28;21060;-42
2022/12/01 08:55:19;;;;;;;96.32;33.92;;;2.60;99.90;;;;;;5003838;28;20085;-41
2022/12/01 08:57:45;;;;;;;95.30;34.25;;;2.60;99.90;;;;;;5007411;28;20385;-41
2022/12/01 09:00:11;;;;;;;101.15;36.60;;;2.70;99.90;;;;;;5006870;28;20041;-40
2022/12/01 09:02:36;;;;;;;97.47;34.40;;;2.70;99.90;;;;;;5007543;28;20506;-41
2022/12/01 09:05:02;;;;;;;101.53;35.55;;;2.70;99.90;;;;;;5006812;28;20025;-42
2022/12/01 09:07:28;;;;;;;98.47;36.58;;;2.70;99.90;;;;;;5004150;28;20022;-40
2022/12/01 09:09:53;;;;;;;100.38;34.08;;;2.70;99.90;;;;;;5006039;28;20427;-42
2022/12/01 09:12:19;;;;;;;102.90;35.42;;;2.70;99.90;;;;;;4999298;28;20026;-42
2022/12/01 09:14:48;;;;;;;101.22;35.30;;;2.80;99.90;;;;;;4988566;28;20381;-41
2022/12/01 09:17:15;;;;;;;117.88;38.13;;;2.80;99.90;;;;;;4986668;28;20029;-41
2022/12/01 09:19:41;;;;;;;115.03;37.67;;;2.80;99.90;;;;;;4987675;28;20030;-41
2022/12/01 09:22:07;;;;;;;106.72;33.03;;;2.70;99.90;;;;;;4988066;28;20037;-41
2022/12/01 09:24:33;;;;;;;99.80;36.60;;;2.80;99.90;;;;;;4988571;28;20019;-41
2022/12/01 09:26:59;;;;;;;112.57;36.83;;;2.80;99.90;;;;;;4987769;28;20076;-41
2022/12/01 09:29:25;;;;;;;124.72;40.90;;;2.80;99.90;;;;;;4988086;28;20074;-42
2022/12/01 09:31:55;;;;;;;108.97;39.10;;;2.80;99.90;;;;;;4989042;28;20512;-42
2022/12/01 09:34:20;;;;;;;113.32;36.50;;;2.80;99.90;;;;;;4989004;28;20030;-44
2022/12/01 09:36:47;;;;;;;123.10;39.35;;;2.80;99.90;;;;;;4989072;28;20030;-42
2022/12/01 09:39:15;;;;;;;112.82;37.97;;;2.80;99.90;;;;;;4988809;28;20026;-40
2022/12/01 09:41:44;;;;;;;127.60;40.70;;;2.80;99.90;;;;;;4994535;28;20439;-42
2022/12/01 09:44:14;;;;;;;131.10;39.33;;;2.80;99.90;;;;;;5005655;28;20168;-41
2022/12/01 09:46:51;;;;;;;112.80;36.67;;;2.70;99.90;;;;;;5008486;28;20022;-41
2022/12/01 09:49:33;;;;;;;124.85;39.95;;;2.80;99.90;;;;;;5008756;28;20204;-41
2022/12/01 09:51:59;;;;;;;135.82;40.45;;;2.70;99.90;;;;;;5009216;28;20029;-41
2022/12/01 09:54:27;;;;;;;137.65;42.22;;;2.80;99.90;;;;;;5008771;28;20402;-41
2022/12/01 09:56:54;;;;;;;130.50;41.65;;;2.80;99.90;;;;;;5009036;28;20026;-41
2022/12/01 09:59:23;;;;;;;131.93;41.38;;;2.80;99.90;;;;;;5008729;28;20076;-41
2022/12/01 10:01:54;;;;;;;134.93;43.33;;;2.80;99.90;;;;;;4989726;28;20056;-41
2022/12/01 10:04:41;;;;;;;132.88;41.83;;;2.80;99.90;;;;;;4989680;28;20397;-41
2022/12/01 10:07:30;;;;;;;122.13;41.33;;;2.80;99.90;;;;;;4989356;28;20080;-41
2022/12/01 10:10:00;;;;;;;126.90;41.80;;;2.80;99.90;;;;;;4988744;28;20049;-42
2022/12/01 10:12:29;;;;;;;124.07;43.00;;;2.80;99.90;;;;;;4989420;28;20093;-42
2022/12/01 10:15:12;;;;;;;133.73;44.50;;;2.80;99.90;;;;;;4986621;28;20036;-41
2022/12/01 10:17:52;;;;;;;130.57;39.75;;;2.80;99.90;;;;;;4994696;28;20031;-41
2022/12/01 10:20:30;;;;;;;128.32;41.40;;;2.80;99.90;;;;;;4999636;28;20021;-41
2022/12/01 10:23:27;;;;;;;138.88;43.25;;;2.80;99.90;;;;;;5008114;28;20037;-42
2022/12/01 10:25:57;;;;;;;120.07;40.28;;;2.90;99.90;;;;;;5006973;28;20040;-42
2022/12/01 10:29:01;;;;;;;139.60;42.70;;;2.80;99.90;;;;;;5006869;28;20076;-41
2022/12/01 10:31:53;;;;;;;134.35;42.30;;;2.90;99.90;;;;;;5006339;28;20034;-41
2022/12/01 10:34:32;;;;;;;135.27;43.17;;;2.90;99.90;;;;;;5007092;28;20046;-42
2022/12/01 10:36:58;;;;;;;125.60;42.35;;;2.90;99.90;;;;;;5007981;28;20113;-41
2022/12/01 10:39:29;;;;;;;126.82;39.35;;;2.90;99.90;;;;;;5010673;28;20555;-42
2022/12/01 10:42:13;;;;;;;129.98;41.97;;;3.00;99.90;;;;;;5011535;28;20467;-41
2022/12/01 10:44:39;;;;;;;133.65;42.28;;;2.90;99.90;;;;;;5011376;28;20398;-42
2022/12/01 10:47:17;;;;;;;139.75;43.67;;;2.90;99.90;;;;;;5011464;28;20034;-42
2022/12/01 10:49:42;;;;;;;139.20;43.58;;;2.90;99.90;;;;;;5011417;28;20432;-42
2022/12/01 10:52:30;;;;;;;121.25;41.17;;;2.90;99.90;;;;;;5012145;28;20021;-43
2022/12/01 10:54:55;;;;;;;150.95;46.33;;;2.90;99.90;;;;;;5011987;28;20136;-42
2022/12/01 10:57:22;;;;;;;131.32;43.28;;;2.90;99.90;;;;;;5011702;28;20566;-42
2022/12/01 10:59:51;;;;;;;144.43;45.97;;;2.90;99.90;;;;;;5011404;28;20253;-42
2022/12/01 11:02:22;;;;;;;123.15;42.15;;;2.90;99.90;;;;;;5010335;28;20491;-42
2022/12/01 11:04:58;;;;;;;126.78;40.85;;;2.80;99.90;;;;;;5011552;28;20509;-43
2022/12/01 11:07:30;;;;;;;140.80;45.78;;;2.90;99.90;;;;;;5011717;28;20084;-43
2022/12/01 11:10:03;;;;;;;150.57;45.67;;;2.90;99.90;;;;;;5011566;28;20113;-42
2022/12/01 11:12:28;;;;;;;126.43;41.70;;;2.90;99.90;;;;;;5011775;28;20046;-41
2022/12/01 11:14:56;;;;;;;131.38;42.53;;;2.90;99.90;;;;;;5011870;28;20064;-43
2022/12/01 11:17:27;;;;;;;126.00;43.55;;;2.90;99.90;;;;;;5011830;28;20475;-42
2022/12/01 11:19:52;;;;;;;127.63;41.50;;;3.00;99.90;;;;;;5011366;28;20537;-42
2022/12/01 11:22:19;;;;;;;124.95;40.97;;;3.00;99.90;;;;;;5011598;28;20029;-42
2022/12/01 11:24:56;;;;;;;119.18;39.38;;;3.00;99.90;;;;;;5010370;28;20060;-43
2022/12/01 11:27:28;;;;;;;113.00;38.85;;;3.00;99.90;;;;;;5011512;28;20028;-41
2022/12/01 11:29:56;;;;;;;130.20;43.20;;;3.10;99.90;;;;;;5009698;28;20402;-43
2022/12/01 11:32:23;;;;;;;134.55;45.00;;;3.10;99.90;;;;;;5011557;28;20185;-41
2022/12/01 11:34:52;;;;;;;127.60;42.13;;;3.10;99.90;;;;;;5011112;28;20247;-41
2022/12/01 11:37:21;;;;;;;122.67;40.97;;;3.10;99.90;;;;;;5011531;28;20046;-41
2022/12/01 11:39:47;;;;;;;140.20;42.53;;;3.10;99.90;;;;;;5010980;28;20494;-41
2022/12/01 11:42:12;;;;;;;133.40;46.55;;;3.10;99.90;;;;;;5011267;28;20501;-42
2022/12/01 11:44:46;;;;;;;130.48;41.55;;;3.10;99.90;;;;;;5011143;28;20037;-41
2022/12/01 11:47:14;;;;;;;134.20;42.47;;;3.10;99.90;;;;;;5011328;28;20056;-41
2022/12/01 11:49:42;;;;;;;141.25;44.38;;;3.10;99.90;;;;;;5009418;28;20056;-43
2022/12/01 11:52:35;;;;;;;134.05;44.47;;;3.10;99.90;;;;;;5010854;28;20022;-41
2022/12/01 11:55:10;;;;;;;142.85;43.72;;;3.10;99.90;;;;;;5005571;28;20030;-42
2022/12/01 11:57:38;;;;;;;150.50;45.00;;;3.20;99.90;;;;;;5009894;28;20026;-43
2022/12/01 12:00:19;;;;;;;146.38;43.85;;;3.10;99.90;;;;;;5010645;28;20045;-41
2022/12/01 12:02:47;;;;;;;;;;;3.20;99.90;;;;;;5011288;28;20711;-40
2022/12/01 12:05:44;;;;;;;140.70;45.40;;;3.20;99.90;;;;;;5010709;28;19905;-41
2022/12/01 12:08:38;;;;;;;154.50;46.78;;;3.20;99.90;;;;;;5010611;28;20419;-41
2022/12/01 12:11:18;;;;;;;140.85;42.00;;;3.10;99.90;;;;;;5010158;28;20398;-41
2022/12/01 12:14:19;;;;;;;144.55;44.88;;;3.10;99.90;;;;;;5010697;28;20026;-41
2022/12/01 12:17:11;;;;;;;149.88;45.72;;;3.10;99.90;;;;;;5010596;28;20526;-41
2022/12/01 12:19:54;;;;;;;149.82;43.53;;;3.10;99.90;;;;;;5009870;28;20427;-41
2022/12/01 12:22:28;;;;;;;162.75;47.53;;;3.20;99.90;;;;;;5010411;28;20108;-42
2022/12/01 12:25:18;;;;;;;147.63;46.38;;;3.20;99.90;;;;;;5010359;28;20571;-42
2022/12/01 12:27:55;;;;;;;;;;;3.20;99.90;;;;;;5011009;28;20171;-42
2022/12/01 12:30:28;;;;;;;140.02;44.17;;;3.10;99.90;;;;;;5010242;28;19988;-41
2022/12/01 12:33:21;;;;;;;144.93;44.50;;;3.20;99.90;;;;;;5010927;28;20022;-43
2022/12/01 12:36:37;;;;;;;126.43;40.72;;;3.20;99.90;;;;;;5010801;28;20230;-41
2022/12/01 12:39:43;;;;;;;144.80;47.13;;;3.20;99.90;;;;;;5011317;28;20025;-41
2022/12/01 12:42:45;;;;;;;153.30;45.45;;;3.10;99.90;;;;;;5010285;28;20394;-42
2022/12/01 12:45:42;;;;;;;134.50;41.05;;;3.10;99.90;;;;;;5009803;28;20017;-42
2022/12/01 12:48:17;;;;;;;159.52;47.05;;;3.10;99.90;;;;;;5010653;28;20022;-42